SVA835 WMKK-OEMA
Flight info
| Callsign | SVA835 |
|---|---|
| Flight time | N/A |
| Altitude | 34000 |
| Route | PUGER1D PUGER R461 ISVUR N563 AKMIL/N0487F360 N563 REXOD L883 UMILA/N0481F380 N569 TOKRA/N0439F280 Y511 ITRUX/N0475F380 Y511 ELONU |
| Aircraft | B77W/H-SDE1E2E3FGHIJ2J3J4J5M1RWXY/LB1D1 |
Departure
| Time | 2026-05-08 08:51 |
|---|---|
| Airport | Kuala Lumpur International Airport (WMKK) |
Arrival
| Time | N/A |
|---|---|
| Airport | Prince Mohammad Bin Abdulaziz Airport (OEMA) |
| Time | Latitude | Longitude | Altitude | Speed | Heading |
|---|---|---|---|---|---|
| 2026-05-08 08:05 | 2.75380 | 101.70854 | 71 ft | 0 kts | 326° |
| 2026-05-08 08:32 | 2.75380 | 101.70855 | 69 ft | 1 kts | 326° |
| 2026-05-08 08:32 | 2.75360 | 101.70868 | 66 ft | 4 kts | 326° |
| 2026-05-08 08:32 | 2.75339 | 101.70883 | 66 ft | 4 kts | 330° |
| 2026-05-08 08:32 | 2.75321 | 101.70887 | 66 ft | 4 kts | 51° |
| 2026-05-08 08:33 | 2.75309 | 101.70864 | 66 ft | 4 kts | 65° |
| 2026-05-08 08:33 | 2.75302 | 101.70850 | 66 ft | 1 kts | 56° |
| 2026-05-08 08:33 | 2.75301 | 101.70848 | 66 ft | 0 kts | 56° |
| 2026-05-08 08:41 | 2.75304 | 101.70853 | 70 ft | 3 kts | 56° |
| 2026-05-08 08:42 | 2.75323 | 101.70882 | 72 ft | 7 kts | 56° |
| 2026-05-08 08:42 | 2.75353 | 101.70926 | 68 ft | 8 kts | 56° |
| 2026-05-08 08:42 | 2.75385 | 101.70975 | 68 ft | 8 kts | 56° |
| 2026-05-08 08:42 | 2.75417 | 101.71023 | 66 ft | 8 kts | 56° |
| 2026-05-08 08:43 | 2.75449 | 101.71070 | 70 ft | 8 kts | 56° |
| 2026-05-08 08:43 | 2.75480 | 101.71117 | 67 ft | 8 kts | 56° |
| 2026-05-08 08:43 | 2.75512 | 101.71165 | 70 ft | 8 kts | 56° |
| 2026-05-08 08:43 | 2.75543 | 101.71213 | 69 ft | 8 kts | 56° |
| 2026-05-08 08:44 | 2.75575 | 101.71260 | 73 ft | 8 kts | 56° |
| 2026-05-08 08:44 | 2.75607 | 101.71307 | 68 ft | 8 kts | 56° |
| 2026-05-08 08:44 | 2.75641 | 101.71357 | 68 ft | 9 kts | 51° |
| 2026-05-08 08:44 | 2.75694 | 101.71383 | 70 ft | 9 kts | 358° |
| 2026-05-08 08:45 | 2.75756 | 101.71361 | 69 ft | 11 kts | 330° |
| 2026-05-08 08:45 | 2.75837 | 101.71307 | 70 ft | 17 kts | 326° |
| 2026-05-08 08:45 | 2.75950 | 101.71230 | 67 ft | 21 kts | 326° |
| 2026-05-08 08:45 | 2.76068 | 101.71151 | 66 ft | 20 kts | 326° |
| 2026-05-08 08:46 | 2.76180 | 101.71075 | 63 ft | 19 kts | 326° |
| 2026-05-08 08:46 | 2.76292 | 101.71001 | 60 ft | 19 kts | 326° |
| 2026-05-08 08:46 | 2.76404 | 101.70926 | 61 ft | 19 kts | 326° |
| 2026-05-08 08:46 | 2.76516 | 101.70851 | 61 ft | 19 kts | 326° |
| 2026-05-08 08:47 | 2.76628 | 101.70776 | 61 ft | 19 kts | 326° |
| 2026-05-08 08:47 | 2.76738 | 101.70703 | 66 ft | 19 kts | 326° |
| 2026-05-08 08:47 | 2.76850 | 101.70628 | 63 ft | 19 kts | 326° |
| 2026-05-08 08:47 | 2.76962 | 101.70553 | 66 ft | 19 kts | 326° |
| 2026-05-08 08:48 | 2.77073 | 101.70477 | 62 ft | 19 kts | 326° |
| 2026-05-08 08:48 | 2.77184 | 101.70402 | 63 ft | 19 kts | 326° |
| 2026-05-08 08:48 | 2.77296 | 101.70328 | 60 ft | 19 kts | 326° |
| 2026-05-08 08:48 | 2.77408 | 101.70253 | 59 ft | 19 kts | 326° |
| 2026-05-08 08:49 | 2.77520 | 101.70178 | 59 ft | 19 kts | 326° |
| 2026-05-08 08:49 | 2.77631 | 101.70103 | 59 ft | 19 kts | 326° |
| 2026-05-08 08:49 | 2.77733 | 101.70066 | 63 ft | 8 kts | 14° |
| 2026-05-08 08:49 | 2.77771 | 101.70098 | 60 ft | 7 kts | 51° |
| 2026-05-08 08:50 | 2.77802 | 101.70144 | 59 ft | 10 kts | 60° |
| 2026-05-08 08:50 | 2.77795 | 101.70217 | 64 ft | 12 kts | 124° |
| 2026-05-08 08:50 | 2.77776 | 101.70234 | 63 ft | 0 kts | 143° |
| 2026-05-08 08:50 | 2.77743 | 101.70257 | 61 ft | 24 kts | 146° |
| 2026-05-08 08:51 | 2.77385 | 101.70497 | 64 ft | 98 kts | 146° |
| 2026-05-08 08:51 | 2.76630 | 101.71007 | 63 ft | 161 kts | 146° |
| 2026-05-08 08:51 | 2.75576 | 101.71739 | 209 ft | 195 kts | 143° |
| 2026-05-08 08:51 | 2.74438 | 101.72506 | 741 ft | 198 kts | 147° |
| 2026-05-08 08:52 | 2.73325 | 101.73239 | 1545 ft | 185 kts | 148° |
| 2026-05-08 08:52 | 2.72245 | 101.73946 | 1960 ft | 194 kts | 143° |
| 2026-05-08 08:52 | 2.71459 | 101.75084 | 2031 ft | 211 kts | 102° |
| 2026-05-08 08:52 | 2.71317 | 101.76604 | 2182 ft | 230 kts | 107° |
| 2026-05-08 08:53 | 2.70532 | 101.78037 | 2327 ft | 245 kts | 128° |
| 2026-05-08 08:53 | 2.69589 | 101.79510 | 2753 ft | 255 kts | 121° |
| 2026-05-08 08:53 | 2.68720 | 101.81087 | 3394 ft | 261 kts | 120° |
| 2026-05-08 08:53 | 2.68145 | 101.82180 | 3852 ft | 265 kts | 118° |
| 2026-05-08 08:54 | 2.67007 | 101.84379 | 4729 ft | 272 kts | 118° |
| 2026-05-08 08:54 | 2.66136 | 101.86071 | 5436 ft | 275 kts | 118° |
| 2026-05-08 08:54 | 2.65318 | 101.87803 | 6059 ft | 277 kts | 107° |
| 2026-05-08 08:54 | 2.65201 | 101.89734 | 6545 ft | 283 kts | 78° |
| 2026-05-08 08:55 | 2.66030 | 101.91509 | 7211 ft | 284 kts | 51° |
| 2026-05-08 08:55 | 2.67485 | 101.92799 | 7810 ft | 285 kts | 38° |
| 2026-05-08 08:55 | 2.69095 | 101.93982 | 8405 ft | 289 kts | 38° |
| 2026-05-08 08:55 | 2.70800 | 101.95042 | 8946 ft | 291 kts | 21° |
| 2026-05-08 08:56 | 2.72812 | 101.95298 | 9445 ft | 297 kts | 352° |
| 2026-05-08 08:56 | 2.74762 | 101.94638 | 10032 ft | 298 kts | 332° |
| 2026-05-08 08:56 | 2.76593 | 101.93583 | 10416 ft | 311 kts | 331° |
| 2026-05-08 08:56 | 2.78517 | 101.92433 | 10567 ft | 334 kts | 330° |
| 2026-05-08 08:57 | 2.80571 | 101.91192 | 10734 ft | 356 kts | 330° |
| 2026-05-08 08:57 | 2.82756 | 101.89867 | 10900 ft | 376 kts | 330° |
| 2026-05-08 08:57 | 2.85035 | 101.88489 | 11354 ft | 388 kts | 330° |
| 2026-05-08 08:57 | 2.87366 | 101.87085 | 11975 ft | 394 kts | 330° |
| 2026-05-08 08:58 | 2.89738 | 101.85664 | 12727 ft | 398 kts | 330° |
| 2026-05-08 08:58 | 2.92089 | 101.84258 | 13482 ft | 401 kts | 330° |
| 2026-05-08 08:58 | 2.94502 | 101.82818 | 14125 ft | 405 kts | 330° |
| 2026-05-08 08:58 | 2.96143 | 101.81838 | 14541 ft | 408 kts | 330° |
| 2026-05-08 08:59 | 2.99394 | 101.79895 | 15374 ft | 414 kts | 331° |
| 2026-05-08 08:59 | 3.01857 | 101.78423 | 15967 ft | 419 kts | 331° |
| 2026-05-08 08:59 | 3.04332 | 101.76864 | 16464 ft | 421 kts | 324° |
| 2026-05-08 08:59 | 3.06350 | 101.74707 | 16851 ft | 432 kts | 303° |
| 2026-05-08 09:00 | 3.07578 | 101.71947 | 17447 ft | 437 kts | 286° |
| 2026-05-08 09:00 | 3.08235 | 101.68980 | 18035 ft | 439 kts | 282° |
| 2026-05-08 09:00 | 3.08856 | 101.65967 | 18468 ft | 445 kts | 282° |
| 2026-05-08 09:00 | 3.09275 | 101.63949 | 18775 ft | 448 kts | 282° |
| 2026-05-08 09:01 | 3.10131 | 101.59865 | 19457 ft | 452 kts | 283° |
| 2026-05-08 09:01 | 3.10785 | 101.56771 | 20000 ft | 454 kts | 283° |
| 2026-05-08 09:01 | 3.11222 | 101.54720 | 20331 ft | 456 kts | 283° |
| 2026-05-08 09:01 | 3.12108 | 101.50582 | 20978 ft | 461 kts | 283° |
| 2026-05-08 09:02 | 3.12785 | 101.47429 | 21440 ft | 465 kts | 283° |
| 2026-05-08 09:02 | 3.13467 | 101.44257 | 21908 ft | 468 kts | 283° |
| 2026-05-08 09:02 | 3.14154 | 101.41063 | 22373 ft | 472 kts | 283° |
| 2026-05-08 09:02 | 3.14621 | 101.38887 | 22690 ft | 474 kts | 283° |
| 2026-05-08 09:03 | 3.15315 | 101.35657 | 23133 ft | 477 kts | 283° |
| 2026-05-08 09:03 | 3.16016 | 101.32397 | 23531 ft | 480 kts | 283° |
| 2026-05-08 09:03 | 3.16714 | 101.29147 | 23885 ft | 483 kts | 283° |
| 2026-05-08 09:03 | 3.17421 | 101.25852 | 24223 ft | 487 kts | 283° |
| 2026-05-08 09:04 | 3.18135 | 101.22525 | 24579 ft | 490 kts | 283° |
| 2026-05-08 09:04 | 3.18851 | 101.19186 | 24945 ft | 492 kts | 283° |
| 2026-05-08 09:04 | 3.19571 | 101.15829 | 25312 ft | 494 kts | 283° |
| 2026-05-08 09:04 | 3.20292 | 101.12462 | 25662 ft | 497 kts | 283° |
| 2026-05-08 09:05 | 3.21017 | 101.09076 | 26003 ft | 499 kts | 283° |
| 2026-05-08 09:05 | 3.21746 | 101.05667 | 26341 ft | 502 kts | 283° |
| 2026-05-08 09:05 | 3.22476 | 101.02248 | 26670 ft | 504 kts | 283° |
| 2026-05-08 09:05 | 3.23180 | 100.98967 | 26975 ft | 507 kts | 283° |
| 2026-05-08 09:06 | 3.23938 | 100.95512 | 27294 ft | 509 kts | 284° |
| 2026-05-08 09:06 | 3.24760 | 100.92060 | 27594 ft | 511 kts | 285° |
| 2026-05-08 09:06 | 3.25616 | 100.88605 | 27899 ft | 513 kts | 285° |
| 2026-05-08 09:06 | 3.26486 | 100.85121 | 28182 ft | 516 kts | 285° |
| 2026-05-08 09:07 | 3.27351 | 100.81630 | 28454 ft | 518 kts | 285° |
| 2026-05-08 09:07 | 3.28211 | 100.78125 | 28729 ft | 520 kts | 285° |
| 2026-05-08 09:07 | 3.29068 | 100.74599 | 28991 ft | 521 kts | 285° |
| 2026-05-08 09:07 | 3.29911 | 100.71110 | 29295 ft | 522 kts | 285° |
| 2026-05-08 09:08 | 3.30762 | 100.67577 | 29688 ft | 521 kts | 285° |
| 2026-05-08 09:08 | 3.31610 | 100.64055 | 30048 ft | 520 kts | 285° |
| 2026-05-08 09:08 | 3.32457 | 100.60542 | 30398 ft | 519 kts | 285° |
| 2026-05-08 09:08 | 3.33302 | 100.57037 | 30741 ft | 517 kts | 285° |
| 2026-05-08 09:09 | 3.34145 | 100.53542 | 31124 ft | 515 kts | 285° |
| 2026-05-08 09:09 | 3.34984 | 100.50066 | 31465 ft | 514 kts | 285° |
| 2026-05-08 09:09 | 3.35823 | 100.46582 | 31781 ft | 514 kts | 285° |
| 2026-05-08 09:09 | 3.36660 | 100.43110 | 32097 ft | 513 kts | 285° |
| 2026-05-08 09:10 | 3.37493 | 100.39643 | 32429 ft | 512 kts | 285° |
| 2026-05-08 09:10 | 3.38324 | 100.36185 | 32792 ft | 510 kts | 285° |
| 2026-05-08 09:10 | 3.39157 | 100.32734 | 33181 ft | 507 kts | 285° |
| 2026-05-08 09:10 | 3.39896 | 100.29329 | 33484 ft | 507 kts | 281° |
| 2026-05-08 09:11 | 3.40338 | 100.25817 | 33730 ft | 509 kts | 275° |
| 2026-05-08 09:11 | 3.40569 | 100.22266 | 33792 ft | 512 kts | 275° |
| 2026-05-08 09:11 | 3.40957 | 100.15148 | 33808 ft | 510 kts | 274° |
| 2026-05-08 09:12 | 3.41352 | 100.08091 | 33815 ft | 506 kts | 275° |
| 2026-05-08 09:12 | 3.41780 | 100.01055 | 33821 ft | 505 kts | 275° |
| 2026-05-08 09:13 | 3.42209 | 99.94221 | 33821 ft | 505 kts | 275° |
| 2026-05-08 09:13 | 3.42825 | 99.87215 | 33820 ft | 505 kts | 282° |
| 2026-05-08 09:14 | 3.44677 | 99.80456 | 33827 ft | 504 kts | 292° |
| 2026-05-08 09:14 | 3.47264 | 99.73917 | 33820 ft | 505 kts | 292° |
| 2026-05-08 09:15 | 3.49849 | 99.67372 | 33816 ft | 506 kts | 292° |
| 2026-05-08 09:15 | 3.52387 | 99.60839 | 33811 ft | 506 kts | 292° |
| 2026-05-08 09:16 | 3.54922 | 99.54256 | 33814 ft | 506 kts | 292° |
| 2026-05-08 09:16 | 3.57450 | 99.47678 | 33808 ft | 506 kts | 292° |
| 2026-05-08 09:17 | 3.59979 | 99.41101 | 33810 ft | 505 kts | 292° |
| 2026-05-08 09:17 | 3.62487 | 99.34582 | 33804 ft | 504 kts | 292° |
| 2026-05-08 09:18 | 3.65028 | 99.28034 | 33807 ft | 503 kts | 293° |
| 2026-05-08 09:18 | 3.67845 | 99.21618 | 33801 ft | 503 kts | 295° |
| 2026-05-08 09:19 | 3.70771 | 99.15247 | 33791 ft | 503 kts | 295° |
| 2026-05-08 09:19 | 3.73648 | 99.08907 | 33790 ft | 502 kts | 295° |
| 2026-05-08 09:20 | 3.76508 | 99.02510 | 33786 ft | 503 kts | 295° |
| 2026-05-08 09:20 | 3.79289 | 98.96259 | 33782 ft | 504 kts | 295° |
| 2026-05-08 09:21 | 3.82144 | 98.89834 | 33789 ft | 505 kts | 295° |
| 2026-05-08 09:23 | 3.92145 | 98.67354 | 33799 ft | 507 kts | 295° |
| 2026-05-08 09:23 | 3.95011 | 98.60909 | 33794 ft | 506 kts | 295° |
| 2026-05-08 09:24 | 3.97869 | 98.54480 | 33796 ft | 505 kts | 295° |
| 2026-05-08 09:24 | 4.00697 | 98.48119 | 33804 ft | 504 kts | 295° |
| 2026-05-08 09:25 | 4.03550 | 98.41698 | 33804 ft | 504 kts | 295° |
| 2026-05-08 09:25 | 4.06400 | 98.35282 | 33804 ft | 504 kts | 295° |
| 2026-05-08 09:26 | 4.09251 | 98.28862 | 33811 ft | 504 kts | 295° |
| 2026-05-08 09:26 | 4.12104 | 98.22438 | 33817 ft | 505 kts | 295° |
| 2026-05-08 09:27 | 4.14942 | 98.16047 | 33834 ft | 505 kts | 295° |
| 2026-05-08 09:27 | 4.17801 | 98.09605 | 33831 ft | 506 kts | 295° |
| 2026-05-08 09:28 | 4.20661 | 98.03158 | 33860 ft | 506 kts | 295° |
| 2026-05-08 09:28 | 4.23461 | 97.96845 | 33839 ft | 507 kts | 295° |
| 2026-05-08 09:29 | 4.26308 | 97.90424 | 33844 ft | 507 kts | 295° |
| 2026-05-08 09:29 | 4.29171 | 97.83968 | 33865 ft | 507 kts | 295° |
| 2026-05-08 09:30 | 4.32033 | 97.77510 | 33869 ft | 507 kts | 295° |
| 2026-05-08 09:30 | 4.34894 | 97.71052 | 33894 ft | 507 kts | 295° |
| 2026-05-08 09:31 | 4.37759 | 97.64586 | 33896 ft | 507 kts | 295° |
| 2026-05-08 09:31 | 4.40613 | 97.58141 | 33898 ft | 506 kts | 295° |
| 2026-05-08 09:32 | 4.43451 | 97.51731 | 33889 ft | 506 kts | 295° |
| 2026-05-08 09:32 | 4.46303 | 97.45289 | 33889 ft | 506 kts | 295° |
| 2026-05-08 09:33 | 4.49155 | 97.38843 | 33887 ft | 505 kts | 295° |
| 2026-05-08 09:33 | 4.52007 | 97.32397 | 33890 ft | 506 kts | 295° |
| 2026-05-08 09:34 | 4.54862 | 97.25943 | 33887 ft | 506 kts | 295° |
| 2026-05-08 09:34 | 4.57231 | 97.20583 | 33899 ft | 505 kts | 295° |
| 2026-05-08 09:35 | 4.60548 | 97.13078 | 33901 ft | 506 kts | 295° |
| 2026-05-08 09:35 | 4.63398 | 97.06629 | 33913 ft | 506 kts | 295° |
| 2026-05-08 09:36 | 4.66249 | 97.00174 | 33898 ft | 506 kts | 295° |
| 2026-05-08 09:36 | 4.69033 | 96.93871 | 33923 ft | 506 kts | 295° |
| 2026-05-08 09:37 | 4.71866 | 96.87457 | 33900 ft | 506 kts | 295° |
| 2026-05-08 09:37 | 4.74715 | 96.81002 | 33912 ft | 506 kts | 295° |
| 2026-05-08 09:38 | 4.77564 | 96.74546 | 33906 ft | 506 kts | 295° |
| 2026-05-08 09:38 | 4.80411 | 96.68091 | 33921 ft | 506 kts | 295° |
| 2026-05-08 09:39 | 4.83237 | 96.61683 | 33916 ft | 507 kts | 295° |
| 2026-05-08 09:39 | 4.86096 | 96.55197 | 33903 ft | 507 kts | 295° |
| 2026-05-08 09:40 | 4.88950 | 96.48723 | 33899 ft | 507 kts | 295° |
| 2026-05-08 09:40 | 4.91797 | 96.42258 | 33903 ft | 507 kts | 295° |
| 2026-05-08 09:41 | 4.94648 | 96.35785 | 33896 ft | 507 kts | 295° |
| 2026-05-08 09:41 | 4.97480 | 96.29355 | 33902 ft | 507 kts | 295° |
| 2026-05-08 09:42 | 5.00317 | 96.22911 | 33864 ft | 506 kts | 296° |
| 2026-05-08 09:42 | 5.03165 | 96.16441 | 33873 ft | 507 kts | 295° |
| 2026-05-08 09:43 | 5.06014 | 96.09962 | 33881 ft | 508 kts | 295° |
| 2026-05-08 09:43 | 5.08872 | 96.03465 | 33872 ft | 508 kts | 295° |
| 2026-05-08 09:44 | 5.11648 | 95.97151 | 33881 ft | 508 kts | 295° |
| 2026-05-08 09:44 | 5.14506 | 95.90647 | 33862 ft | 508 kts | 295° |
| 2026-05-08 09:45 | 5.17355 | 95.84162 | 33860 ft | 508 kts | 295° |
| 2026-05-08 09:45 | 5.20192 | 95.77703 | 33849 ft | 508 kts | 295° |
| 2026-05-08 09:46 | 5.23040 | 95.71217 | 33842 ft | 508 kts | 295° |
| 2026-05-08 09:46 | 5.25871 | 95.64767 | 33852 ft | 507 kts | 295° |
| 2026-05-08 09:47 | 5.28714 | 95.58289 | 33829 ft | 506 kts | 295° |
| 2026-05-08 09:47 | 5.31552 | 95.51818 | 33815 ft | 506 kts | 295° |
| 2026-05-08 09:48 | 5.34395 | 95.45336 | 33805 ft | 508 kts | 295° |
| 2026-05-08 09:48 | 5.37241 | 95.38845 | 33808 ft | 509 kts | 295° |
| 2026-05-08 09:49 | 5.40097 | 95.32328 | 33810 ft | 510 kts | 295° |
| 2026-05-08 09:49 | 5.42931 | 95.25856 | 33813 ft | 509 kts | 295° |
| 2026-05-08 09:50 | 5.45775 | 95.19361 | 33812 ft | 507 kts | 295° |
| 2026-05-08 09:50 | 5.48610 | 95.12885 | 33815 ft | 506 kts | 295° |
| 2026-05-08 09:51 | 5.51444 | 95.06411 | 33815 ft | 505 kts | 295° |
| 2026-05-08 09:51 | 5.54250 | 94.99995 | 33822 ft | 504 kts | 295° |
| 2026-05-08 09:52 | 5.56527 | 94.94791 | 33820 ft | 504 kts | 295° |
| 2026-05-08 09:52 | 5.59342 | 94.88351 | 33824 ft | 503 kts | 295° |
| 2026-05-08 09:53 | 5.62152 | 94.81921 | 33820 ft | 502 kts | 295° |
| 2026-05-08 09:53 | 5.64956 | 94.75504 | 33822 ft | 501 kts | 295° |
| 2026-05-08 09:54 | 5.67754 | 94.69098 | 33821 ft | 501 kts | 295° |
| 2026-05-08 09:54 | 5.70536 | 94.62726 | 33810 ft | 502 kts | 295° |
| 2026-05-08 09:55 | 5.73824 | 94.55194 | 33831 ft | 504 kts | 295° |
| 2026-05-08 09:55 | 5.76169 | 94.49818 | 33829 ft | 506 kts | 295° |
| 2026-05-08 09:56 | 5.78999 | 94.43330 | 33823 ft | 508 kts | 295° |
| 2026-05-08 09:56 | 5.81834 | 94.36826 | 33819 ft | 508 kts | 295° |
| 2026-05-08 09:57 | 5.86075 | 94.27093 | 33821 ft | 508 kts | 295° |
| 2026-05-08 09:57 | 5.88902 | 94.20602 | 33820 ft | 507 kts | 295° |
| 2026-05-08 09:58 | 5.91729 | 94.14110 | 33818 ft | 506 kts | 295° |
| 2026-05-08 09:58 | 5.94557 | 94.07614 | 33823 ft | 506 kts | 295° |
| 2026-05-08 09:59 | 5.97377 | 94.01132 | 33822 ft | 506 kts | 295° |
| 2026-05-08 09:59 | 6.00108 | 93.94854 | 33820 ft | 507 kts | 295° |
| 2026-05-08 10:00 | 6.02936 | 93.88349 | 33821 ft | 507 kts | 295° |
| 2026-05-08 10:00 | 6.05760 | 93.81851 | 33822 ft | 508 kts | 295° |
| 2026-05-08 10:01 | 6.08586 | 93.75345 | 33823 ft | 507 kts | 295° |
| 2026-05-08 10:01 | 6.11391 | 93.68886 | 33821 ft | 507 kts | 295° |
| 2026-05-08 10:02 | 6.14213 | 93.62386 | 33821 ft | 506 kts | 295° |
| 2026-05-08 10:02 | 6.17027 | 93.55900 | 33821 ft | 506 kts | 295° |
| 2026-05-08 10:03 | 6.19837 | 93.49424 | 33819 ft | 505 kts | 295° |
| 2026-05-08 10:03 | 6.22640 | 93.42959 | 33818 ft | 505 kts | 295° |
| 2026-05-08 10:04 | 6.25439 | 93.36502 | 33819 ft | 505 kts | 295° |
| 2026-05-08 10:04 | 6.28247 | 93.30020 | 33816 ft | 505 kts | 295° |
| 2026-05-08 10:05 | 6.31060 | 93.23527 | 33819 ft | 505 kts | 294° |
| 2026-05-08 10:05 | 6.33848 | 93.17085 | 33819 ft | 505 kts | 294° |
| 2026-05-08 10:06 | 6.36654 | 93.10602 | 33820 ft | 505 kts | 294° |
| 2026-05-08 10:06 | 6.39464 | 93.04106 | 33820 ft | 506 kts | 294° |
| 2026-05-08 10:07 | 6.42211 | 92.97755 | 33816 ft | 506 kts | 294° |
| 2026-05-08 10:07 | 6.44998 | 92.91306 | 33817 ft | 506 kts | 294° |
| 2026-05-08 10:08 | 6.47802 | 92.84820 | 33812 ft | 506 kts | 294° |
| 2026-05-08 10:08 | 6.50606 | 92.78325 | 33818 ft | 506 kts | 294° |
| 2026-05-08 10:09 | 6.53416 | 92.71817 | 33814 ft | 507 kts | 294° |
| 2026-05-08 10:09 | 6.56211 | 92.65340 | 33811 ft | 507 kts | 294° |
| 2026-05-08 10:10 | 6.59023 | 92.58820 | 33816 ft | 508 kts | 294° |
| 2026-05-08 10:10 | 6.61838 | 92.52294 | 33814 ft | 509 kts | 294° |
| 2026-05-08 10:11 | 6.64652 | 92.45764 | 33811 ft | 509 kts | 294° |
| 2026-05-08 10:11 | 6.67470 | 92.39222 | 33811 ft | 509 kts | 294° |
| 2026-05-08 10:12 | 6.70291 | 92.32673 | 33811 ft | 509 kts | 294° |
| 2026-05-08 10:12 | 6.73092 | 92.26167 | 33811 ft | 509 kts | 294° |
| 2026-05-08 10:13 | 6.75902 | 92.19636 | 33802 ft | 508 kts | 294° |
| 2026-05-08 10:13 | 6.78709 | 92.13109 | 33805 ft | 508 kts | 294° |
| 2026-05-08 10:14 | 6.81511 | 92.06590 | 33805 ft | 507 kts | 294° |
| 2026-05-08 10:14 | 6.84314 | 92.00069 | 33809 ft | 506 kts | 294° |
| 2026-05-08 10:15 | 6.87027 | 91.93750 | 33801 ft | 504 kts | 294° |
| 2026-05-08 10:15 | 6.89803 | 91.87287 | 33794 ft | 502 kts | 294° |
| 2026-05-08 10:16 | 6.92570 | 91.80840 | 33808 ft | 501 kts | 294° |
| 2026-05-08 10:16 | 6.95336 | 91.74395 | 33809 ft | 502 kts | 294° |
| 2026-05-08 10:17 | 6.98109 | 91.67927 | 33809 ft | 503 kts | 294° |
| 2026-05-08 10:17 | 7.00864 | 91.61500 | 33807 ft | 504 kts | 294° |
| 2026-05-08 10:18 | 7.03642 | 91.55017 | 33806 ft | 505 kts | 294° |
| 2026-05-08 10:18 | 7.06424 | 91.48521 | 33810 ft | 505 kts | 294° |
| 2026-05-08 10:19 | 7.09203 | 91.42027 | 33805 ft | 505 kts | 294° |
| 2026-05-08 10:20 | 7.13374 | 91.32279 | 33805 ft | 504 kts | 294° |
| 2026-05-08 10:20 | 7.16128 | 91.25837 | 33805 ft | 504 kts | 294° |
| 2026-05-08 10:21 | 7.18896 | 91.19361 | 33805 ft | 503 kts | 294° |
| 2026-05-08 10:21 | 7.21664 | 91.12883 | 33803 ft | 503 kts | 294° |
| 2026-05-08 10:22 | 7.24427 | 91.06412 | 33800 ft | 502 kts | 294° |
| 2026-05-08 10:22 | 7.27177 | 90.99968 | 33804 ft | 502 kts | 294° |
| 2026-05-08 10:23 | 7.29864 | 90.93672 | 33803 ft | 502 kts | 294° |
| 2026-05-08 10:23 | 7.32627 | 90.87193 | 33803 ft | 503 kts | 294° |
| 2026-05-08 10:24 | 7.35389 | 90.80712 | 33805 ft | 503 kts | 294° |
| 2026-05-08 10:24 | 7.38149 | 90.74234 | 33802 ft | 503 kts | 293° |
| 2026-05-08 10:25 | 7.40907 | 90.67757 | 33802 ft | 503 kts | 293° |
| 2026-05-08 10:25 | 7.43644 | 90.61328 | 33802 ft | 502 kts | 293° |
| 2026-05-08 10:26 | 7.46393 | 90.54865 | 33805 ft | 502 kts | 293° |
| 2026-05-08 10:26 | 7.49141 | 90.48404 | 33807 ft | 501 kts | 293° |
| 2026-05-08 10:27 | 7.51889 | 90.41940 | 33802 ft | 501 kts | 293° |
| 2026-05-08 10:27 | 7.54634 | 90.35479 | 33809 ft | 500 kts | 293° |
| 2026-05-08 10:28 | 7.57374 | 90.29026 | 33801 ft | 500 kts | 293° |
| 2026-05-08 10:28 | 7.60087 | 90.22633 | 33803 ft | 499 kts | 294° |
| 2026-05-08 10:29 | 7.62822 | 90.16186 | 33802 ft | 499 kts | 294° |
| 2026-05-08 10:29 | 7.65556 | 90.09738 | 33807 ft | 500 kts | 294° |
| 2026-05-08 10:30 | 7.68289 | 90.03291 | 33804 ft | 500 kts | 294° |
| 2026-05-08 10:30 | 7.70951 | 89.97008 | 33799 ft | 501 kts | 293° |
| 2026-05-08 10:31 | 7.73693 | 89.90533 | 33805 ft | 502 kts | 293° |
| 2026-05-08 10:31 | 7.76429 | 89.84067 | 33802 ft | 502 kts | 293° |
| 2026-05-08 10:32 | 7.79174 | 89.77577 | 33805 ft | 502 kts | 293° |
| 2026-05-08 10:32 | 7.81917 | 89.71091 | 33808 ft | 502 kts | 293° |
| 2026-05-08 10:33 | 7.84660 | 89.64602 | 33805 ft | 502 kts | 293° |
| 2026-05-08 10:33 | 7.87380 | 89.58161 | 33803 ft | 502 kts | 293° |
| 2026-05-08 10:34 | 7.90117 | 89.51679 | 33801 ft | 502 kts | 293° |
| 2026-05-08 10:34 | 7.92850 | 89.45202 | 33806 ft | 501 kts | 293° |
| 2026-05-08 10:35 | 7.95581 | 89.38728 | 33806 ft | 501 kts | 293° |
| 2026-05-08 10:35 | 7.98309 | 89.32257 | 33845 ft | 502 kts | 293° |
| 2026-05-08 10:35 | 7.99678 | 89.29007 | 34061 ft | 503 kts | 293° |
| 2026-05-08 10:36 | 8.01040 | 89.25774 | 34387 ft | 501 kts | 293° |
| 2026-05-08 10:36 | 8.02384 | 89.22583 | 34720 ft | 499 kts | 293° |
| 2026-05-08 10:36 | 8.03744 | 89.19356 | 35020 ft | 498 kts | 293° |
| 2026-05-08 10:36 | 8.05102 | 89.16129 | 35283 ft | 498 kts | 293° |
| 2026-05-08 10:37 | 8.06456 | 89.12914 | 35556 ft | 498 kts | 293° |
| 2026-05-08 10:37 | 8.07811 | 89.09694 | 35732 ft | 498 kts | 293° |
| 2026-05-08 10:37 | 8.09169 | 89.06468 | 35757 ft | 500 kts | 293° |
| 2026-05-08 10:38 | 8.11879 | 89.00022 | 35796 ft | 498 kts | 293° |
| 2026-05-08 10:38 | 8.14520 | 88.93738 | 35801 ft | 496 kts | 293° |
| 2026-05-08 10:39 | 8.17204 | 88.87348 | 35803 ft | 494 kts | 293° |
| 2026-05-08 10:39 | 8.19871 | 88.80996 | 35809 ft | 494 kts | 293° |
| 2026-05-08 10:40 | 8.22552 | 88.74607 | 35806 ft | 494 kts | 293° |
| 2026-05-08 10:40 | 8.25236 | 88.68210 | 35808 ft | 494 kts | 293° |
| 2026-05-08 10:41 | 8.27905 | 88.61842 | 35807 ft | 495 kts | 293° |
| 2026-05-08 10:41 | 8.30597 | 88.55417 | 35806 ft | 496 kts | 293° |
| 2026-05-08 10:42 | 8.32831 | 88.50083 | 35806 ft | 497 kts | 293° |
| 2026-05-08 10:42 | 8.35528 | 88.43640 | 35799 ft | 498 kts | 294° |
| 2026-05-08 10:43 | 8.38668 | 88.36136 | 35808 ft | 499 kts | 294° |
| 2026-05-08 10:43 | 8.40934 | 88.30716 | 35806 ft | 500 kts | 293° |
| 2026-05-08 10:44 | 8.43638 | 88.24245 | 35805 ft | 500 kts | 293° |
| 2026-05-08 10:44 | 8.46326 | 88.17812 | 35805 ft | 500 kts | 293° |
| 2026-05-08 10:45 | 8.49028 | 88.11339 | 35799 ft | 500 kts | 293° |
| 2026-05-08 10:45 | 8.51733 | 88.04859 | 35798 ft | 500 kts | 293° |
| 2026-05-08 10:46 | 8.54372 | 87.98530 | 35804 ft | 500 kts | 293° |
| 2026-05-08 10:46 | 8.57075 | 87.92045 | 35802 ft | 500 kts | 293° |
| 2026-05-08 10:47 | 8.59784 | 87.85543 | 35803 ft | 501 kts | 293° |
| 2026-05-08 10:47 | 8.62468 | 87.79097 | 35803 ft | 501 kts | 293° |
| 2026-05-08 10:48 | 8.65169 | 87.72607 | 35801 ft | 501 kts | 293° |
| 2026-05-08 10:48 | 8.67868 | 87.66118 | 35799 ft | 501 kts | 293° |
| 2026-05-08 10:49 | 8.70569 | 87.59621 | 35800 ft | 501 kts | 293° |
| 2026-05-08 10:49 | 8.73273 | 87.53115 | 35799 ft | 502 kts | 293° |
| 2026-05-08 10:50 | 8.75976 | 87.46604 | 35802 ft | 502 kts | 293° |
| 2026-05-08 10:50 | 8.78682 | 87.40083 | 35801 ft | 502 kts | 293° |
| 2026-05-08 10:51 | 8.81370 | 87.33603 | 35799 ft | 503 kts | 293° |
| 2026-05-08 10:51 | 8.84074 | 87.27078 | 35799 ft | 503 kts | 293° |
| 2026-05-08 10:52 | 8.86777 | 87.20555 | 35798 ft | 503 kts | 293° |
| 2026-05-08 10:52 | 8.89483 | 87.14020 | 35797 ft | 503 kts | 293° |
| 2026-05-08 10:53 | 8.92188 | 87.07483 | 35796 ft | 503 kts | 293° |
| 2026-05-08 10:53 | 8.94891 | 87.00949 | 35797 ft | 503 kts | 293° |
| 2026-05-08 10:54 | 8.97517 | 86.94596 | 35800 ft | 503 kts | 293° |
| 2026-05-08 10:54 | 9.00214 | 86.88068 | 35799 ft | 503 kts | 292° |
| 2026-05-08 10:55 | 9.02914 | 86.81529 | 35796 ft | 503 kts | 292° |
| 2026-05-08 10:55 | 9.05602 | 86.75016 | 35795 ft | 504 kts | 292° |
| 2026-05-08 10:56 | 9.08298 | 86.68478 | 35801 ft | 503 kts | 292° |
| 2026-05-08 10:56 | 9.10992 | 86.61941 | 35798 ft | 503 kts | 292° |
| 2026-05-08 10:57 | 9.13681 | 86.55413 | 35796 ft | 501 kts | 292° |
| 2026-05-08 10:57 | 9.17683 | 86.45692 | 35791 ft | 499 kts | 292° |
| 2026-05-08 10:58 | 9.20347 | 86.39216 | 35792 ft | 498 kts | 292° |
| 2026-05-08 10:58 | 9.23008 | 86.32745 | 35790 ft | 497 kts | 292° |
| 2026-05-08 10:59 | 9.25663 | 86.26281 | 35790 ft | 497 kts | 292° |
| 2026-05-08 10:59 | 9.28316 | 86.19820 | 35792 ft | 497 kts | 292° |
| 2026-05-08 11:00 | 9.30976 | 86.13339 | 35790 ft | 498 kts | 292° |
| 2026-05-08 11:00 | 9.33633 | 86.06859 | 35797 ft | 499 kts | 292° |
| 2026-05-08 11:01 | 9.36297 | 86.00359 | 35790 ft | 501 kts | 292° |
| 2026-05-08 11:01 | 9.38891 | 85.94028 | 35786 ft | 502 kts | 292° |
| 2026-05-08 11:02 | 9.42899 | 85.84237 | 35792 ft | 502 kts | 292° |
| 2026-05-08 11:03 | 9.45573 | 85.77698 | 35784 ft | 502 kts | 292° |
| 2026-05-08 11:03 | 9.48247 | 85.71159 | 35785 ft | 502 kts | 292° |
| 2026-05-08 11:04 | 9.50914 | 85.64631 | 35789 ft | 501 kts | 292° |
| 2026-05-08 11:04 | 9.53579 | 85.58103 | 35790 ft | 501 kts | 292° |
| 2026-05-08 11:05 | 9.56239 | 85.51586 | 35786 ft | 500 kts | 292° |
| 2026-05-08 11:05 | 9.58900 | 85.45061 | 35790 ft | 500 kts | 292° |
| 2026-05-08 11:06 | 9.61542 | 85.38577 | 35786 ft | 501 kts | 292° |
| 2026-05-08 11:06 | 9.64199 | 85.32053 | 35788 ft | 501 kts | 292° |
| 2026-05-08 11:07 | 9.66856 | 85.25524 | 35782 ft | 502 kts | 292° |
| 2026-05-08 11:07 | 9.69519 | 85.18977 | 35785 ft | 502 kts | 292° |
| 2026-05-08 11:08 | 9.72183 | 85.12425 | 35785 ft | 503 kts | 292° |
| 2026-05-08 11:08 | 9.74848 | 85.05866 | 35784 ft | 503 kts | 292° |
| 2026-05-08 11:09 | 9.77447 | 84.99463 | 35783 ft | 503 kts | 292° |
| 2026-05-08 11:09 | 9.80096 | 84.92936 | 35787 ft | 503 kts | 292° |
| 2026-05-08 11:10 | 9.82757 | 84.86374 | 35780 ft | 503 kts | 292° |
| 2026-05-08 11:10 | 9.85417 | 84.79808 | 35780 ft | 503 kts | 292° |
| 2026-05-08 11:11 | 9.88074 | 84.73249 | 35781 ft | 502 kts | 292° |
| 2026-05-08 11:11 | 9.90729 | 84.66688 | 35776 ft | 502 kts | 292° |
| 2026-05-08 11:12 | 9.93365 | 84.60171 | 35779 ft | 502 kts | 292° |
| 2026-05-08 11:12 | 9.95994 | 84.53667 | 35782 ft | 502 kts | 292° |
| 2026-05-08 11:13 | 9.98643 | 84.47110 | 35777 ft | 502 kts | 292° |
| 2026-05-08 11:13 | 10.01289 | 84.40555 | 35778 ft | 502 kts | 292° |